createdAt,value
2019-02-20T00:00:07.801Z,77.77
2019-02-20T00:00:33.928Z,77.87
2019-02-20T00:01:00.041Z,77.87
2019-02-20T00:01:26.192Z,77.68
2019-02-20T00:01:52.321Z,77.87
2019-02-20T00:02:18.426Z,77.68
2019-02-20T00:02:44.562Z,77.49
2019-02-20T00:03:10.699Z,77.39
2019-02-20T00:03:37.796Z,77.92
2019-02-20T00:04:03.925Z,77.87
2019-02-20T00:04:30.059Z,78.16
2019-02-20T00:04:56.171Z,77.92
2019-02-20T00:05:22.274Z,78.11
2019-02-20T00:05:48.383Z,78.21
2019-02-20T00:06:14.540Z,78.21
2019-02-20T00:06:40.679Z,77.92
2019-02-20T00:07:06.814Z,78.34
2019-02-20T00:07:32.911Z,78.63
2019-02-20T00:07:59.020Z,78.63
2019-02-20T00:08:25.156Z,78.34
2019-02-20T00:08:51.322Z,78.44
2019-02-20T00:09:17.483Z,78.72
2019-02-20T00:09:43.623Z,78.53
2019-02-20T00:10:09.726Z,78.34
2019-02-20T00:10:35.837Z,78.63
2019-02-20T00:11:01.944Z,78.53
2019-02-20T00:11:28.050Z,78.44
2019-02-20T00:11:54.211Z,78.3
2019-02-20T00:12:20.316Z,78.16
2019-02-20T00:12:46.415Z,78.53
2019-02-20T00:13:12.584Z,78.59
2019-02-20T00:13:38.685Z,78.5
2019-02-20T00:14:04.786Z,78.59
2019-02-20T00:14:30.923Z,78.72
2019-02-20T00:14:57.025Z,78.53
2019-02-20T00:15:23.138Z,78.44
2019-02-20T00:15:49.238Z,78.21
2019-02-20T00:16:15.367Z,78.21
2019-02-20T00:16:41.497Z,78.21
2019-02-20T00:17:07.608Z,78.02
2019-02-20T00:17:33.739Z,78.44
2019-02-20T00:17:59.854Z,78.02
2019-02-20T00:18:26.003Z,78.78
2019-02-20T00:18:52.121Z,78.88
2019-02-20T00:19:20.142Z,78.34
2019-02-20T00:19:45.357Z,78.69
2019-02-20T00:20:11.458Z,78.5
2019-02-20T00:20:37.567Z,78.3
2019-02-20T00:21:03.703Z,79.06
2019-02-20T00:21:29.841Z,78.69
2019-02-20T00:21:55.945Z,78.63
2019-02-20T00:22:22.053Z,78.69
2019-02-20T00:22:49.177Z,78.72
2019-02-20T00:23:15.315Z,78.97
2019-02-20T00:23:41.412Z,78.63
2019-02-20T00:24:07.557Z,78.69
2019-02-20T00:24:33.657Z,79.01
2019-02-20T00:24:59.764Z,79.11
2019-02-20T00:25:25.897Z,78.53
2019-02-20T00:25:52.013Z,79.01
2019-02-20T00:26:18.173Z,78.63
2019-02-20T00:26:44.304Z,79.16
2019-02-20T00:27:10.471Z,79.16
2019-02-20T00:27:36.580Z,78.53
2019-02-20T00:28:02.707Z,78.69
2019-02-20T00:28:28.814Z,78.69
2019-02-20T00:28:54.978Z,78.59
2019-02-20T00:29:21.128Z,78.69
2019-02-20T00:29:47.233Z,78.59
2019-02-20T00:30:13.400Z,79.01
2019-02-20T00:30:39.534Z,78.97
2019-02-20T00:31:05.629Z,78.72
2019-02-20T00:31:31.739Z,78.97
2019-02-20T00:31:57.876Z,78.97
2019-02-20T00:32:24.055Z,78.97
2019-02-20T00:32:50.165Z,78.88
2019-02-20T00:33:16.296Z,79.16
2019-02-20T00:33:42.438Z,79.25
2019-02-20T00:34:08.534Z,78.97
2019-02-20T00:34:34.641Z,78.88
2019-02-20T00:35:00.744Z,79.25
2019-02-20T00:35:26.850Z,79.06
2019-02-20T00:35:52.957Z,79.25
2019-02-20T00:36:19.115Z,79.54
2019-02-20T00:36:45.276Z,79.16
2019-02-20T00:37:11.391Z,79.16
2019-02-20T00:37:37.543Z,79.06
2019-02-20T00:38:03.746Z,79.06
2019-02-20T00:38:29.898Z,79.06
2019-02-20T00:38:56.021Z,78.88
2019-02-20T00:39:22.149Z,78.69
2019-02-20T00:39:48.282Z,79.16
2019-02-20T00:40:14.414Z,79.44
2019-02-20T00:40:40.550Z,79.35
2019-02-20T00:41:06.685Z,79.44
2019-02-20T00:41:32.794Z,79.63
2019-02-20T00:41:58.891Z,79.63
2019-02-20T00:42:25.002Z,79.44
2019-02-20T00:42:51.100Z,79.63
2019-02-20T00:43:17.210Z,79.63
2019-02-20T00:43:43.315Z,79.63
2019-02-20T00:44:09.421Z,79.63
2019-02-20T00:44:35.527Z,79.44
2019-02-20T00:45:01.635Z,79.54
2019-02-20T00:45:27.791Z,79.54
2019-02-20T00:45:53.899Z,79.63
2019-02-20T00:46:19.996Z,79.83
2019-02-20T00:46:46.100Z,80.11
2019-02-20T00:47:12.211Z,80.3
2019-02-20T00:47:38.344Z,80.21
2019-02-20T00:48:04.444Z,80.02
2019-02-20T00:48:30.585Z,79.92
2019-02-20T00:48:56.686Z,80.3
2019-02-20T00:49:22.817Z,80.21
2019-02-20T00:49:48.927Z,80.11
2019-02-20T00:50:15.030Z,80.21
2019-02-20T00:50:41.190Z,80.11
2019-02-20T00:51:07.325Z,80.02
2019-02-20T00:51:33.431Z,80.21
2019-02-20T00:51:59.562Z,80.11
2019-02-20T00:52:25.672Z,80.3
2019-02-20T00:52:53.747Z,80.02
2019-02-20T00:53:19.859Z,80.02
2019-02-20T00:53:45.987Z,80.21
2019-02-20T00:54:13.147Z,80.02
2019-02-20T00:54:39.243Z,79.83
2019-02-20T00:55:05.417Z,80.02
2019-02-20T00:55:31.550Z,80.11
2019-02-20T00:55:57.677Z,80.3
2019-02-20T00:56:23.814Z,80.49
2019-02-20T00:56:49.914Z,80.4
2019-02-20T00:57:16.045Z,80.21
2019-02-20T00:57:42.163Z,80.21
2019-02-20T00:58:08.264Z,80.21
2019-02-20T00:58:34.366Z,80.11
2019-02-20T00:59:00.476Z,80.02
2019-02-20T00:59:26.625Z,80.21
2019-02-20T00:59:52.759Z,80.3
2019-02-20T01:00:18.866Z,80.68
2019-02-20T01:00:44.985Z,80.49
2019-02-20T01:01:11.097Z,80.77
2019-02-20T01:01:37.203Z,80.77
2019-02-20T01:02:03.310Z,80.77
2019-02-20T01:02:29.443Z,80.58
2019-02-20T01:02:55.552Z,80.4
2019-02-20T01:03:21.681Z,80.68
2019-02-20T01:03:47.793Z,80.68
2019-02-20T01:04:13.890Z,80.68
2019-02-20T01:04:40.000Z,80.68
2019-02-20T01:05:06.103Z,80.68
2019-02-20T01:05:32.236Z,80.58
2019-02-20T01:05:58.367Z,80.68
2019-02-20T01:06:25.460Z,80.58
2019-02-20T01:06:51.575Z,80.68
2019-02-20T01:07:17.680Z,80.87
2019-02-20T01:07:43.783Z,80.68
2019-02-20T01:08:09.920Z,80.68
2019-02-20T01:08:36.025Z,80.49
2019-02-20T01:09:02.124Z,80.77
2019-02-20T01:09:28.234Z,80.68
2019-02-20T01:09:54.366Z,80.77
2019-02-20T01:10:20.467Z,80.77
2019-02-20T01:10:46.602Z,80.87
2019-02-20T01:11:12.740Z,80.77
2019-02-20T01:11:39.866Z,80.77
2019-02-20T01:12:05.967Z,80.4
2019-02-20T01:12:32.075Z,80.58
2019-02-20T01:12:58.184Z,80.58
2019-02-20T01:13:24.290Z,80.87
2019-02-20T01:13:50.425Z,80.68
2019-02-20T01:14:16.526Z,80.87
2019-02-20T01:14:42.632Z,80.96
2019-02-20T01:15:08.772Z,81.25
2019-02-20T01:15:34.905Z,81.54
2019-02-20T01:16:01.015Z,81.63
2019-02-20T01:16:27.157Z,81.44
2019-02-20T01:16:53.258Z,81.63
2019-02-20T01:17:19.359Z,81.54
2019-02-20T01:17:45.466Z,81.63
2019-02-20T01:18:11.638Z,81.35
2019-02-20T01:18:37.767Z,81.25
2019-02-20T01:19:03.906Z,81.54
2019-02-20T01:19:30.033Z,81.63
2019-02-20T01:19:56.142Z,81.54
2019-02-20T01:20:22.241Z,81.44
2019-02-20T01:20:48.381Z,81.54
2019-02-20T01:21:14.543Z,81.44
2019-02-20T01:21:40.670Z,81.44
2019-02-20T01:22:06.799Z,81.44
2019-02-20T01:22:32.902Z,81.63
2019-02-20T01:22:59.948Z,81.25
2019-02-20T01:23:26.129Z,81.54
2019-02-20T01:23:52.234Z,81.25
2019-02-20T01:24:18.341Z,81.54
2019-02-20T01:24:44.469Z,81.63
2019-02-20T01:25:10.626Z,81.63
2019-02-20T01:25:36.767Z,81.44
2019-02-20T01:26:02.871Z,81.63
2019-02-20T01:26:28.991Z,81.25
2019-02-20T01:26:55.135Z,81.06
2019-02-20T01:27:21.281Z,81.25
2019-02-20T01:27:47.409Z,81.44
2019-02-20T01:28:13.540Z,81.63
2019-02-20T01:28:39.684Z,81.63
2019-02-20T01:29:05.815Z,80.87
2019-02-20T01:29:31.944Z,81.63
2019-02-20T01:29:58.048Z,81.63
2019-02-20T01:30:24.160Z,81.16
2019-02-20T01:30:50.266Z,81.16
2019-02-20T01:31:16.371Z,81.44
2019-02-20T01:31:42.506Z,81.25
2019-02-20T01:32:08.645Z,81.44
2019-02-20T01:32:34.746Z,81.25
2019-02-20T01:33:00.888Z,81.44
2019-02-20T01:33:27.098Z,81.16
2019-02-20T01:33:56.898Z,81.06
2019-02-20T01:34:22.995Z,81.25
2019-02-20T01:34:49.103Z,81.16
2019-02-20T01:35:15.207Z,81.44
2019-02-20T01:35:41.344Z,81.35
2019-02-20T01:36:07.476Z,81.35
2019-02-20T01:36:33.580Z,81.44
2019-02-20T01:36:59.690Z,81.35
2019-02-20T01:37:25.799Z,81.44
2019-02-20T01:37:51.907Z,81.35
2019-02-20T01:38:18.036Z,81.44
2019-02-20T01:38:44.167Z,81.25
2019-02-20T01:39:10.300Z,81.44
2019-02-20T01:39:36.435Z,81.44
2019-02-20T01:40:02.546Z,81.63
2019-02-20T01:40:28.690Z,81.54
2019-02-20T01:40:54.855Z,81.54
2019-02-20T01:41:20.967Z,81.63
2019-02-20T01:41:47.101Z,81.54
2019-02-20T01:42:13.233Z,81.25
2019-02-20T01:42:39.367Z,81.44
2019-02-20T01:43:05.464Z,80.77
2019-02-20T01:43:31.597Z,80.77
2019-02-20T01:43:57.755Z,80.77
2019-02-20T01:44:23.922Z,81.16
2019-02-20T01:44:50.033Z,81.63
2019-02-20T01:45:16.168Z,81.63
2019-02-20T01:45:42.310Z,81.54
2019-02-20T01:46:08.437Z,81.54
2019-02-20T01:46:34.540Z,81.63
2019-02-20T01:47:00.701Z,81.63
2019-02-20T01:47:26.838Z,81.25
2019-02-20T01:47:52.998Z,81.06
2019-02-20T01:48:19.105Z,80.87
2019-02-20T01:48:45.243Z,80.87
2019-02-20T01:49:11.379Z,81.63
2019-02-20T01:49:37.490Z,81.44
2019-02-20T01:50:03.597Z,81.63
2019-02-20T01:50:29.728Z,81.44
2019-02-20T01:50:55.853Z,81.63
2019-02-20T01:51:21.985Z,81.54
2019-02-20T01:51:48.084Z,81.63
2019-02-20T01:52:14.194Z,81.54
2019-02-20T01:52:40.298Z,81.63
2019-02-20T01:53:10.170Z,81.44
2019-02-20T01:53:33.530Z,81.35
2019-02-20T01:53:59.671Z,81.25
2019-02-20T01:54:25.853Z,81.63
2019-02-20T01:54:51.986Z,81.73
2019-02-20T01:55:18.095Z,81.25
2019-02-20T01:55:44.229Z,81.48
2019-02-20T01:56:10.332Z,81.44
2019-02-20T01:56:36.431Z,81.54
2019-02-20T01:57:02.548Z,81.44
2019-02-20T01:57:28.684Z,81.63
2019-02-20T01:57:54.783Z,81.67
2019-02-20T01:58:20.889Z,81.54
2019-02-20T01:58:46.994Z,81.25
2019-02-20T01:59:13.090Z,81.29
2019-02-20T01:59:39.215Z,81.54
2019-02-20T02:00:05.361Z,81.63
2019-02-20T02:00:31.488Z,81.54
2019-02-20T02:00:57.620Z,81.35
2019-02-20T02:01:23.755Z,81.44
2019-02-20T02:01:49.868Z,81.25
2019-02-20T02:02:16.044Z,81.16
2019-02-20T02:02:42.165Z,81.25
2019-02-20T02:03:08.260Z,81.1
2019-02-20T02:03:34.370Z,81.16
2019-02-20T02:04:00.466Z,81.06
2019-02-20T02:04:26.599Z,81.2
2019-02-20T02:04:52.709Z,81.06
2019-02-20T02:05:19.858Z,81.1
2019-02-20T02:05:46.023Z,81.48
2019-02-20T02:06:12.138Z,81.38
2019-02-20T02:06:38.291Z,81.2
2019-02-20T02:07:04.420Z,80.91
2019-02-20T02:07:30.520Z,80.91
2019-02-20T02:07:56.631Z,80.68
2019-02-20T02:08:22.735Z,81.01
2019-02-20T02:08:48.842Z,80.63
2019-02-20T02:09:14.975Z,81.38
2019-02-20T02:09:41.142Z,80.91
2019-02-20T02:10:07.243Z,81.1
2019-02-20T02:10:33.381Z,80.91
2019-02-20T02:10:59.529Z,80.91
2019-02-20T02:11:25.636Z,80.91
2019-02-20T02:11:51.739Z,81.1
2019-02-20T02:12:17.875Z,81.01
2019-02-20T02:12:44.025Z,80.82
2019-02-20T02:13:10.144Z,80.82
2019-02-20T02:13:36.279Z,81.01
2019-02-20T02:14:02.406Z,81.01
2019-02-20T02:14:28.539Z,80.63
2019-02-20T02:14:54.661Z,80.82
2019-02-20T02:15:21.761Z,80.63
2019-02-20T02:15:47.859Z,80.72
2019-02-20T02:16:14.007Z,80.63
2019-02-20T02:16:40.113Z,81.1
2019-02-20T02:17:06.242Z,81.58
2019-02-20T02:17:32.368Z,81.58
2019-02-20T02:17:58.471Z,81.58
2019-02-20T02:18:24.578Z,81.67
2019-02-20T02:18:50.743Z,80.91
2019-02-20T02:19:16.841Z,80.72
2019-02-20T02:19:42.952Z,80.91
2019-02-20T02:20:09.062Z,80.91
2019-02-20T02:20:35.167Z,81.01
2019-02-20T02:21:01.295Z,81.1
2019-02-20T02:21:27.414Z,81.1
2019-02-20T02:21:53.537Z,81.29
2019-02-20T02:22:19.652Z,81.67
2019-02-20T02:22:45.826Z,81.58
2019-02-20T02:23:19.589Z,81.58
2019-02-20T02:23:40.070Z,81.67
2019-02-20T02:24:07.158Z,81.38
2019-02-20T02:24:33.349Z,81.38
2019-02-20T02:24:59.471Z,81.29
2019-02-20T02:25:25.640Z,81.25
2019-02-20T02:25:51.767Z,81.48
2019-02-20T02:26:19.852Z,81.1
2019-02-20T02:26:45.990Z,81.38
2019-02-20T02:27:12.098Z,81.29
2019-02-20T02:27:38.233Z,81.38
2019-02-20T02:28:04.337Z,81.1
2019-02-20T02:28:30.477Z,81.2
2019-02-20T02:28:56.608Z,81.2
2019-02-20T02:29:22.715Z,81.2
2019-02-20T02:29:48.816Z,81.2
2019-02-20T02:30:14.990Z,81.2
2019-02-20T02:30:41.166Z,81.29
2019-02-20T02:31:07.306Z,81.2
2019-02-20T02:31:33.472Z,81.38
2019-02-20T02:31:59.588Z,81.86
2019-02-20T02:32:25.710Z,81.67
2019-02-20T02:32:51.818Z,81.63
2019-02-20T02:33:17.954Z,81.77
2019-02-20T02:33:44.055Z,81.77
2019-02-20T02:34:10.228Z,81.86
2019-02-20T02:34:36.324Z,81.58
2019-02-20T02:35:02.426Z,81.67
2019-02-20T02:35:28.532Z,81.86
2019-02-20T02:35:54.640Z,81.77
2019-02-20T02:36:20.772Z,81.96
2019-02-20T02:36:46.888Z,81.58
2019-02-20T02:37:13.009Z,81.77
2019-02-20T02:37:39.112Z,81.67
2019-02-20T02:38:05.221Z,81.67
2019-02-20T02:38:31.356Z,81.1
2019-02-20T02:38:57.488Z,81.48
2019-02-20T02:39:23.617Z,81.58
2019-02-20T02:39:49.780Z,81.48
2019-02-20T02:40:15.935Z,81.48
2019-02-20T02:40:42.048Z,81.77
2019-02-20T02:41:08.206Z,81.58
2019-02-20T02:41:34.314Z,81.58
2019-02-20T02:42:00.444Z,81.77
2019-02-20T02:42:26.577Z,81.86
2019-02-20T02:42:52.706Z,81.86
2019-02-20T02:43:18.813Z,81.63
2019-02-20T02:43:44.931Z,81.96
2019-02-20T02:44:11.084Z,81.67
2019-02-20T02:44:37.277Z,81.86
2019-02-20T02:45:03.383Z,81.86
2019-02-20T02:45:29.510Z,81.86
2019-02-20T02:45:55.640Z,81.58
2019-02-20T02:46:21.750Z,81.67
2019-02-20T02:46:47.884Z,81.86
2019-02-20T02:47:14.037Z,81.67
2019-02-20T02:47:40.188Z,81.67
2019-02-20T02:48:06.363Z,81.77
2019-02-20T02:48:32.509Z,81.73
2019-02-20T02:48:58.620Z,81.82
2019-02-20T02:49:24.721Z,81.67
2019-02-20T02:49:50.830Z,81.54
2019-02-20T02:50:16.930Z,81.77
2019-02-20T02:50:43.068Z,81.67
2019-02-20T02:51:09.229Z,81.77
2019-02-20T02:51:35.349Z,81.86
2019-02-20T02:52:01.461Z,81.86
2019-02-20T02:52:27.620Z,81.67
2019-02-20T02:52:53.733Z,81.67
2019-02-20T02:53:29.928Z,81.58
2019-02-20T02:53:47.943Z,81.48
2019-02-20T02:54:14.101Z,81.67
2019-02-20T02:54:40.209Z,81.86
2019-02-20T02:55:06.316Z,81.96
2019-02-20T02:55:32.420Z,82.1
2019-02-20T02:55:58.537Z,82.34
2019-02-20T02:56:24.670Z,82.39
2019-02-20T02:56:50.772Z,82.34
2019-02-20T02:57:16.876Z,82.2
2019-02-20T02:57:42.979Z,82.39
2019-02-20T02:58:09.113Z,82.05
2019-02-20T02:58:35.223Z,81.82
2019-02-20T02:59:01.327Z,82.01
2019-02-20T02:59:27.439Z,81.82
2019-02-20T02:59:53.572Z,81.96
2019-02-20T03:00:19.681Z,82.43
2019-02-20T03:00:45.780Z,82.39
2019-02-20T03:01:11.885Z,81.92
2019-02-20T03:01:37.994Z,82.81
2019-02-20T03:02:04.134Z,82.81
2019-02-20T03:02:30.277Z,82.58
2019-02-20T03:02:56.401Z,82.81
2019-02-20T03:03:22.507Z,82.81
2019-02-20T03:03:48.613Z,81.96
2019-02-20T03:04:14.743Z,81.77
2019-02-20T03:04:40.846Z,81.86
2019-02-20T03:05:06.975Z,81.86
2019-02-20T03:05:33.078Z,82.05
2019-02-20T03:05:59.240Z,82.62
2019-02-20T03:06:25.375Z,82.71
2019-02-20T03:06:51.514Z,82.05
2019-02-20T03:07:17.641Z,81.96
2019-02-20T03:07:43.809Z,82.05
2019-02-20T03:08:09.958Z,82.05
2019-02-20T03:08:36.118Z,81.96
2019-02-20T03:09:02.249Z,81.86
2019-02-20T03:09:28.369Z,81.96
2019-02-20T03:09:54.481Z,81.86
2019-02-20T03:10:20.640Z,81.86
2019-02-20T03:10:46.760Z,81.96
2019-02-20T03:11:12.888Z,81.67
2019-02-20T03:11:38.998Z,82.05
2019-02-20T03:12:05.105Z,82.05
2019-02-20T03:12:31.204Z,82.34
2019-02-20T03:12:57.342Z,82.43
2019-02-20T03:13:23.469Z,82.15
2019-02-20T03:13:49.636Z,81.96
2019-02-20T03:14:15.763Z,81.96
2019-02-20T03:14:41.877Z,82.15
2019-02-20T03:15:07.980Z,82.34
2019-02-20T03:15:34.128Z,82.24
2019-02-20T03:16:00.239Z,82.24
2019-02-20T03:16:26.367Z,82.24
2019-02-20T03:16:52.485Z,82.24
2019-02-20T03:17:18.587Z,82.24
2019-02-20T03:17:44.692Z,81.86
2019-02-20T03:18:10.855Z,81.86
2019-02-20T03:18:36.966Z,82.71
2019-02-20T03:19:03.112Z,82.62
2019-02-20T03:19:29.258Z,82.81
2019-02-20T03:19:55.392Z,82.71
2019-02-20T03:20:21.527Z,82.62
2019-02-20T03:20:47.657Z,82.62
2019-02-20T03:21:13.815Z,82.62
2019-02-20T03:21:39.951Z,82.81
2019-02-20T03:22:06.066Z,82.62
2019-02-20T03:22:32.188Z,82.62
2019-02-20T03:22:58.292Z,82.68
2019-02-20T03:23:24.417Z,82.71
2019-02-20T03:23:51.589Z,82.53
2019-02-20T03:24:17.717Z,82.53
2019-02-20T03:24:43.846Z,82.43
2019-02-20T03:25:10.039Z,82.24
2019-02-20T03:25:36.138Z,82.24
2019-02-20T03:26:02.245Z,82.62
2019-02-20T03:26:28.345Z,82.62
2019-02-20T03:26:54.481Z,82.62
2019-02-20T03:27:20.584Z,82.62
2019-02-20T03:27:46.726Z,82.71
2019-02-20T03:28:12.861Z,82.62
2019-02-20T03:28:40.194Z,82.34
2019-02-20T03:29:06.066Z,82.43
2019-02-20T03:29:32.176Z,82.34
2019-02-20T03:29:58.318Z,82.71
2019-02-20T03:30:24.466Z,82.71
2019-02-20T03:30:50.526Z,82.62
2019-02-20T03:31:16.637Z,82.81
2019-02-20T03:31:42.768Z,82.71
2019-02-20T03:32:08.917Z,82.62
2019-02-20T03:32:35.186Z,82.62
2019-02-20T03:33:01.255Z,82.71
2019-02-20T03:33:27.380Z,82.81
2019-02-20T03:33:53.477Z,81.96
2019-02-20T03:34:19.623Z,81.77
2019-02-20T03:34:45.750Z,81.86
2019-02-20T03:35:11.851Z,82.24
2019-02-20T03:35:37.959Z,82.24
2019-02-20T03:36:04.067Z,82.05
2019-02-20T03:36:30.176Z,82.43
2019-02-20T03:36:56.282Z,82.34
2019-02-20T03:37:22.421Z,82.43
2019-02-20T03:37:48.522Z,82.34
2019-02-20T03:38:14.661Z,82.15
2019-02-20T03:38:41.775Z,81.86
2019-02-20T03:39:07.911Z,82.24
2019-02-20T03:39:34.041Z,81.96
2019-02-20T03:40:00.344Z,82.24
2019-02-20T03:40:26.444Z,81.86
2019-02-20T03:40:52.601Z,81.58
2019-02-20T03:41:18.735Z,81.86
2019-02-20T03:41:44.838Z,81.96
2019-02-20T03:42:10.955Z,81.77
2019-02-20T03:42:37.111Z,81.58
2019-02-20T03:43:03.277Z,81.96
2019-02-20T03:43:29.379Z,81.67
2019-02-20T03:43:55.523Z,81.2
2019-02-20T03:44:21.669Z,81.58
2019-02-20T03:44:47.769Z,81.38
2019-02-20T03:45:13.871Z,81.48
2019-02-20T03:45:39.976Z,81.29
2019-02-20T03:46:06.083Z,81.67
2019-02-20T03:46:32.247Z,81.77
2019-02-20T03:46:58.477Z,81.77
2019-02-20T03:47:25.528Z,81.77
2019-02-20T03:47:51.665Z,81.77
2019-02-20T03:48:17.792Z,81.67
2019-02-20T03:48:43.930Z,81.77
2019-02-20T03:49:10.031Z,81.77
2019-02-20T03:49:36.154Z,81.77
2019-02-20T03:50:02.255Z,81.77
2019-02-20T03:50:28.392Z,81.77
2019-02-20T03:50:54.525Z,81.67
2019-02-20T03:51:20.634Z,81.48
2019-02-20T03:51:46.736Z,81.48
2019-02-20T03:52:12.877Z,81.67
2019-02-20T03:52:38.972Z,81.58
2019-02-20T03:53:05.097Z,81.67
2019-02-20T03:53:31.217Z,81.38
2019-02-20T03:53:59.321Z,81.67
2019-02-20T03:54:25.571Z,81.38
2019-02-20T03:54:51.683Z,81.38
2019-02-20T03:55:17.816Z,81.48
2019-02-20T03:55:43.918Z,81.38
2019-02-20T03:56:10.031Z,81.38
2019-02-20T03:56:36.160Z,81.38
2019-02-20T03:57:02.297Z,81.77
2019-02-20T03:57:28.454Z,81.86
2019-02-20T03:57:54.590Z,81.67
2019-02-20T03:58:20.747Z,81.58
2019-02-20T03:58:47.846Z,81.58
2019-02-20T03:59:13.949Z,81.67
2019-02-20T03:59:40.061Z,81.67
2019-02-20T04:00:06.217Z,81.67
2019-02-20T04:00:32.331Z,81.67
2019-02-20T04:00:58.434Z,81.67
2019-02-20T04:01:24.538Z,81.48
2019-02-20T04:01:50.679Z,81.67
2019-02-20T04:02:16.789Z,81.67
2019-02-20T04:02:42.943Z,81.48
2019-02-20T04:03:09.053Z,81.77
2019-02-20T04:03:35.157Z,81.77
2019-02-20T04:04:01.288Z,81.86
2019-02-20T04:04:27.390Z,81.86
2019-02-20T04:04:53.522Z,81.86
2019-02-20T04:05:19.629Z,81.96
2019-02-20T04:05:45.742Z,81.86
2019-02-20T04:06:11.853Z,81.86
2019-02-20T04:06:37.961Z,81.77
2019-02-20T04:07:04.083Z,81.86
2019-02-20T04:07:30.212Z,81.67
2019-02-20T04:07:56.348Z,81.86
2019-02-20T04:08:22.446Z,81.77
2019-02-20T04:08:48.590Z,81.67
2019-02-20T04:09:14.684Z,82.15
2019-02-20T04:09:40.830Z,82.15
2019-02-20T04:10:09.048Z,82.34
2019-02-20T04:10:33.120Z,81.86
2019-02-20T04:10:59.251Z,81.48
2019-02-20T04:11:25.359Z,81.77
2019-02-20T04:11:51.488Z,81.77
2019-02-20T04:12:17.618Z,81.77
2019-02-20T04:12:43.753Z,81.48
2019-02-20T04:13:09.884Z,81.67
2019-02-20T04:13:36.004Z,81.86
2019-02-20T04:14:02.129Z,81.86
2019-02-20T04:14:28.225Z,81.67
2019-02-20T04:14:54.345Z,81.67
2019-02-20T04:15:20.506Z,81.67
2019-02-20T04:15:46.622Z,81.77
2019-02-20T04:16:12.771Z,81.96
2019-02-20T04:16:38.905Z,81.58
2019-02-20T04:17:05.013Z,81.77
2019-02-20T04:17:31.116Z,82.24
2019-02-20T04:17:57.218Z,82.24
2019-02-20T04:18:23.343Z,82.15
2019-02-20T04:18:49.476Z,81.86
2019-02-20T04:19:15.609Z,82.34
2019-02-20T04:19:41.714Z,81.86
2019-02-20T04:20:07.823Z,81.77
2019-02-20T04:20:33.963Z,82.71
2019-02-20T04:21:00.069Z,82.71
2019-02-20T04:21:26.209Z,82.71
2019-02-20T04:21:52.313Z,82.71
2019-02-20T04:22:18.420Z,82.43
2019-02-20T04:22:44.560Z,82.24
2019-02-20T04:23:10.691Z,82.34
2019-02-20T04:23:36.799Z,82.34
2019-02-20T04:24:04.920Z,82.24
2019-02-20T04:24:31.015Z,82.15
2019-02-20T04:24:57.120Z,82.24
2019-02-20T04:25:23.252Z,82.24
2019-02-20T04:25:49.358Z,82.24
2019-02-20T04:26:15.467Z,82.24
2019-02-20T04:26:41.572Z,81.96
2019-02-20T04:27:07.684Z,81.86
2019-02-20T04:27:33.790Z,81.86
2019-02-20T04:27:59.895Z,81.77
2019-02-20T04:28:26.032Z,81.86
2019-02-20T04:28:52.138Z,81.77
2019-02-20T04:29:18.235Z,81.77
2019-02-20T04:29:44.400Z,82.24
2019-02-20T04:30:10.783Z,82.53
2019-02-20T04:30:36.884Z,82.71
2019-02-20T04:31:02.987Z,82.53
2019-02-20T04:31:29.122Z,82.05
2019-02-20T04:31:55.229Z,81.86
2019-02-20T04:32:21.362Z,82.24
2019-02-20T04:32:47.462Z,81.96
2019-02-20T04:33:14.248Z,81.86
2019-02-20T04:33:40.353Z,82.24
2019-02-20T04:34:06.490Z,82.15
2019-02-20T04:34:32.600Z,81.86
2019-02-20T04:34:58.705Z,81.86
2019-02-20T04:35:24.810Z,81.48
2019-02-20T04:35:50.916Z,81.86
2019-02-20T04:36:17.016Z,81.67
2019-02-20T04:36:43.148Z,81.67
2019-02-20T04:37:09.326Z,81.67
2019-02-20T04:37:35.389Z,81.67
2019-02-20T04:38:01.543Z,81.77
2019-02-20T04:38:27.645Z,81.77
2019-02-20T04:38:53.756Z,81.96
2019-02-20T04:39:19.886Z,81.67
2019-02-20T04:39:45.991Z,81.58
2019-02-20T04:40:12.131Z,81.58
2019-02-20T04:40:38.235Z,81.77
2019-02-20T04:41:04.414Z,81.38
2019-02-20T04:41:30.550Z,81.67
2019-02-20T04:41:56.690Z,81.58
2019-02-20T04:42:22.790Z,81.38
2019-02-20T04:42:48.923Z,81.48
2019-02-20T04:43:15.031Z,81.77
2019-02-20T04:43:41.137Z,81.77
2019-02-20T04:44:07.310Z,81.2
2019-02-20T04:44:33.440Z,81.1
2019-02-20T04:44:59.581Z,81.2
2019-02-20T04:45:25.753Z,81.29
2019-02-20T04:45:51.876Z,81.48
2019-02-20T04:46:18.009Z,81.2
2019-02-20T04:46:44.114Z,81.2
2019-02-20T04:47:10.251Z,81.2
2019-02-20T04:47:36.378Z,81.38
2019-02-20T04:48:02.483Z,81.58
2019-02-20T04:48:28.622Z,81.58
2019-02-20T04:48:54.756Z,81.67
2019-02-20T04:49:20.885Z,80.63
2019-02-20T04:49:46.997Z,80.91
2019-02-20T04:50:13.269Z,80.82
2019-02-20T04:50:39.376Z,80.91
2019-02-20T04:51:05.576Z,81.01
2019-02-20T04:51:31.681Z,81.01
2019-02-20T04:51:57.792Z,81.01
2019-02-20T04:52:23.916Z,81.01
2019-02-20T04:52:50.042Z,80.82
2019-02-20T04:53:16.157Z,80.72
2019-02-20T04:53:42.283Z,81.1
2019-02-20T04:54:13.135Z,81.58
2019-02-20T04:54:36.505Z,81.67
2019-02-20T04:55:02.616Z,81.67
2019-02-20T04:55:28.730Z,81.58
2019-02-20T04:55:54.860Z,81.58
2019-02-20T04:56:20.996Z,81.48
2019-02-20T04:56:47.088Z,81.48
2019-02-20T04:57:13.203Z,81.1
2019-02-20T04:57:39.353Z,81.58
2019-02-20T04:58:05.493Z,81.38
2019-02-20T04:58:31.629Z,81.77
2019-02-20T04:58:57.776Z,81.77
2019-02-20T04:59:23.890Z,81.38
2019-02-20T04:59:50.003Z,81.58
2019-02-20T05:00:16.266Z,81.48
2019-02-20T05:00:42.371Z,81.67
2019-02-20T05:01:08.475Z,81.67
2019-02-20T05:01:34.619Z,81.58
2019-02-20T05:02:00.725Z,81.67
2019-02-20T05:02:26.869Z,81.48
2019-02-20T05:02:52.990Z,81.2
2019-02-20T05:03:19.093Z,81.1
2019-02-20T05:03:45.237Z,81.2
2019-02-20T05:04:11.336Z,81.2
2019-02-20T05:04:37.448Z,81.38
2019-02-20T05:05:03.584Z,81.2
2019-02-20T05:05:29.686Z,81.29
2019-02-20T05:05:55.800Z,81.48
2019-02-20T05:06:21.905Z,81.29
2019-02-20T05:06:48.014Z,81.67
2019-02-20T05:07:14.168Z,81.58
2019-02-20T05:07:40.301Z,81.48
2019-02-20T05:08:06.440Z,81.48
2019-02-20T05:08:32.592Z,81.48
2019-02-20T05:08:58.722Z,81.48
2019-02-20T05:09:24.886Z,81.58
2019-02-20T05:09:50.994Z,81.29
2019-02-20T05:10:17.177Z,81.67
2019-02-20T05:10:43.288Z,81.77
2019-02-20T05:11:09.418Z,81.77
2019-02-20T05:11:35.525Z,81.77
2019-02-20T05:12:01.662Z,81.86
2019-02-20T05:12:27.795Z,81.67
2019-02-20T05:12:53.905Z,81.77
2019-02-20T05:13:20.072Z,82.43
2019-02-20T05:13:46.180Z,82.24
2019-02-20T05:14:12.283Z,82.24
2019-02-20T05:14:38.386Z,81.96
2019-02-20T05:15:04.550Z,81.77
2019-02-20T05:15:30.679Z,81.77
2019-02-20T05:15:56.816Z,82.05
2019-02-20T05:16:22.950Z,82.43
2019-02-20T05:16:49.075Z,81.67
2019-02-20T05:17:15.210Z,81.77
2019-02-20T05:17:41.318Z,82.43
2019-02-20T05:18:07.422Z,82.71
2019-02-20T05:18:33.541Z,82.24
2019-02-20T05:18:59.665Z,82.53
2019-02-20T05:19:25.787Z,82.71
2019-02-20T05:19:51.872Z,82.62
2019-02-20T05:20:18.013Z,82.62
2019-02-20T05:20:44.165Z,82.71
2019-02-20T05:21:10.299Z,82.71
2019-02-20T05:21:36.427Z,82.62
2019-02-20T05:22:02.535Z,82.62
2019-02-20T05:22:28.666Z,82.62
2019-02-20T05:22:54.801Z,82.62
2019-02-20T05:23:20.957Z,82.62
2019-02-20T05:23:48.083Z,82.43
2019-02-20T05:24:23.961Z,82.53
2019-02-20T05:24:40.991Z,82.71
2019-02-20T05:25:07.092Z,82.43
2019-02-20T05:25:33.265Z,82.43
2019-02-20T05:25:59.403Z,82.62
2019-02-20T05:26:25.504Z,82.62
2019-02-20T05:26:51.639Z,82.81
2019-02-20T05:27:17.761Z,82.71
2019-02-20T05:27:43.879Z,82.62
2019-02-20T05:28:10.000Z,82.62
2019-02-20T05:28:36.181Z,82.71
2019-02-20T05:29:02.288Z,82.62
2019-02-20T05:29:28.422Z,82.62
2019-02-20T05:29:54.528Z,82.43
2019-02-20T05:30:20.652Z,82.34
2019-02-20T05:30:46.736Z,82.43
2019-02-20T05:31:12.878Z,82.43
2019-02-20T05:31:38.981Z,82.53
2019-02-20T05:32:05.115Z,82.43
2019-02-20T05:32:31.273Z,82.71
2019-02-20T05:32:57.396Z,82.68
2019-02-20T05:33:23.514Z,83.25
2019-02-20T05:33:49.619Z,82.58
2019-02-20T05:34:15.785Z,83.06
2019-02-20T05:34:41.902Z,82.96
2019-02-20T05:35:08.014Z,82.96
2019-02-20T05:35:34.145Z,83.15
2019-02-20T05:36:00.306Z,83.06
2019-02-20T05:36:26.412Z,82.96
2019-02-20T05:36:52.509Z,83.34
2019-02-20T05:37:18.678Z,83.53
2019-02-20T05:37:44.976Z,83.15